createdAt,value
2018-06-14T00:02:04.499Z,14.26
2018-06-14T00:04:35.745Z,14.30
2018-06-14T00:07:06.636Z,14.18
2018-06-14T00:09:37.656Z,14.13
2018-06-14T00:12:08.553Z,14.21
2018-06-14T00:14:39.760Z,14.01
2018-06-14T00:17:10.661Z,14.03
2018-06-14T00:19:41.671Z,14.03
2018-06-14T00:22:12.735Z,14.07
2018-06-14T00:24:43.777Z,14.15
2018-06-14T00:27:14.750Z,14.04
2018-06-14T00:29:45.729Z,13.98
2018-06-14T00:32:16.875Z,14.05
2018-06-14T00:34:47.905Z,14.05
2018-06-14T00:37:18.985Z,14.10
2018-06-14T00:39:49.852Z,14.19
2018-06-14T00:42:20.931Z,14.24
2018-06-14T00:44:51.761Z,14.26
2018-06-14T00:47:22.704Z,14.15
2018-06-14T00:49:53.675Z,13.99
2018-06-14T00:52:24.713Z,14.09
2018-06-14T00:54:55.655Z,14.21
2018-06-14T00:57:28.260Z,13.90
2018-06-14T00:59:59.337Z,13.90
2018-06-14T01:02:30.595Z,14.01
2018-06-14T01:05:01.626Z,13.98
2018-06-14T01:07:32.732Z,13.78
2018-06-14T01:10:03.871Z,13.94
2018-06-14T01:12:34.829Z,14.04
2018-06-14T01:15:05.857Z,14.08
2018-06-14T01:17:36.754Z,14.08
2018-06-14T01:20:07.704Z,14.03
2018-06-14T01:22:38.622Z,14.04
2018-06-14T01:25:09.973Z,14.14
2018-06-14T01:27:40.907Z,14.01
2018-06-14T01:30:11.827Z,13.97
2018-06-14T01:32:42.822Z,13.93
2018-06-14T01:35:13.820Z,13.77
2018-06-14T01:37:55.542Z,14.01
2018-06-14T01:40:26.544Z,14.04
2018-06-14T01:42:57.466Z,14.16
2018-06-14T01:45:28.468Z,14.12
2018-06-14T01:47:59.439Z,13.99
2018-06-14T01:50:30.478Z,13.77
2018-06-14T01:53:01.417Z,13.83
2018-06-14T01:55:33.893Z,13.87
2018-06-14T01:58:04.963Z,13.96
2018-06-14T02:00:35.983Z,14.00
2018-06-14T02:03:07.042Z,14.09
2018-06-14T02:05:38.273Z,13.89
2018-06-14T02:08:09.269Z,13.84
2018-06-14T02:10:40.306Z,13.86
2018-06-14T02:13:11.279Z,13.97
2018-06-14T02:15:42.268Z,14.06
2018-06-14T02:18:13.298Z,14.05
2018-06-14T02:20:44.202Z,14.01
2018-06-14T02:23:15.048Z,13.49
2018-06-14T02:25:46.427Z,13.35
2018-06-14T02:28:17.412Z,13.70
2018-06-14T02:30:48.396Z,13.94
2018-06-14T02:33:19.438Z,14.00
2018-06-14T02:35:50.348Z,13.94
2018-06-14T02:38:22.772Z,13.78
2018-06-14T02:40:54.528Z,13.93
2018-06-14T02:43:25.881Z,14.00
2018-06-14T02:45:56.776Z,14.07
2018-06-14T02:48:27.741Z,14.05
2018-06-14T02:50:58.557Z,14.09
2018-06-14T02:53:29.521Z,14.04
2018-06-14T02:56:00.548Z,13.91
2018-06-14T02:58:31.588Z,13.79
2018-06-14T03:01:02.388Z,13.76
2018-06-14T03:03:33.481Z,13.90
2018-06-14T03:06:04.411Z,13.88
2018-06-14T03:08:35.420Z,13.94
2018-06-14T03:11:06.369Z,13.85
2018-06-14T03:13:37.785Z,13.71
2018-06-14T03:16:08.617Z,13.87
2018-06-14T03:18:39.621Z,13.92
2018-06-14T03:21:10.518Z,13.97
2018-06-14T03:23:41.508Z,13.93
2018-06-14T03:26:12.524Z,13.92
2018-06-14T03:28:43.657Z,13.89
2018-06-14T03:31:14.605Z,13.86
2018-06-14T03:33:46.027Z,13.69
2018-06-14T03:36:17.097Z,13.43
2018-06-14T03:38:48.001Z,13.40
2018-06-14T03:41:19.054Z,13.40
2018-06-14T03:43:50.183Z,13.46
2018-06-14T03:46:21.260Z,13.49
2018-06-14T03:48:52.540Z,13.78
2018-06-14T03:51:23.581Z,13.87
2018-06-14T03:53:54.637Z,13.76
2018-06-14T03:56:25.771Z,13.73
2018-06-14T03:58:56.852Z,13.66
2018-06-14T04:01:27.829Z,13.69
2018-06-14T04:03:58.833Z,13.74
2018-06-14T04:06:29.847Z,13.70
2018-06-14T04:09:01.341Z,13.80
2018-06-14T04:11:32.374Z,13.83
2018-06-14T04:14:03.479Z,13.80
2018-06-14T04:16:34.488Z,13.87
2018-06-14T04:19:05.494Z,13.91
2018-06-14T04:21:36.613Z,13.92
2018-06-14T04:24:08.040Z,13.88
2018-06-14T04:26:38.986Z,13.98
2018-06-14T04:29:10.326Z,13.98
2018-06-14T04:31:41.272Z,13.95
2018-06-14T04:34:12.596Z,13.95
2018-06-14T04:36:43.530Z,13.93
2018-06-14T04:39:14.511Z,13.93
2018-06-14T04:41:45.403Z,13.69
2018-06-14T04:44:16.475Z,13.88
2018-06-14T04:46:47.508Z,14.03
2018-06-14T04:49:18.464Z,14.05
2018-06-14T04:51:49.412Z,13.99
2018-06-14T04:54:20.777Z,13.94
2018-06-14T04:56:51.889Z,13.96
2018-06-14T04:59:23.324Z,13.97
2018-06-14T05:01:54.313Z,13.77
2018-06-14T05:04:25.406Z,13.54
2018-06-14T05:06:56.361Z,13.84
2018-06-14T05:09:27.416Z,13.97
2018-06-14T05:11:58.572Z,14.01
2018-06-14T05:14:30.736Z,14.05
2018-06-14T05:17:01.727Z,14.00
2018-06-14T05:19:32.665Z,13.98
2018-06-14T05:22:03.719Z,14.04
2018-06-14T05:24:35.651Z,14.16
2018-06-14T05:27:06.966Z,14.19
2018-06-14T05:29:37.916Z,14.04
2018-06-14T05:32:08.913Z,13.98
2018-06-14T05:34:40.012Z,14.03
2018-06-14T05:37:11.043Z,14.02
2018-06-14T05:39:42.468Z,13.96
2018-06-14T05:42:13.912Z,14.08
2018-06-14T05:44:46.547Z,14.09
2018-06-14T05:47:19.010Z,14.18
2018-06-14T05:49:49.925Z,14.11
2018-06-14T05:52:22.653Z,14.20
2018-06-14T05:54:54.903Z,14.27
2018-06-14T05:57:26.172Z,14.35
2018-06-14T05:59:57.124Z,14.20
2018-06-14T06:02:28.144Z,14.22
2018-06-14T06:04:59.212Z,14.23
2018-06-14T06:07:30.157Z,14.24
2018-06-14T06:10:07.919Z,14.42
2018-06-14T06:12:45.359Z,14.34
2018-06-14T06:15:16.942Z,14.43
2018-06-14T06:17:48.096Z,14.31
2018-06-14T06:20:19.597Z,14.40
2018-06-14T06:22:50.497Z,14.44
2018-06-14T06:25:21.484Z,14.45
2018-06-14T06:27:52.507Z,14.49
2018-06-14T06:30:23.594Z,14.39
2018-06-14T06:32:54.613Z,14.36
2018-06-14T06:35:26.414Z,14.45
2018-06-14T06:37:57.427Z,14.32
2018-06-14T06:40:28.467Z,14.56
2018-06-14T06:42:59.630Z,14.61
2018-06-14T06:45:31.544Z,14.68
2018-06-14T06:48:02.638Z,14.78
2018-06-14T06:50:33.635Z,14.57
2018-06-14T06:53:04.861Z,14.51
2018-06-14T06:55:35.919Z,14.45
2018-06-14T06:58:06.929Z,14.58
2018-06-14T07:00:38.155Z,14.80
2018-06-14T07:03:09.688Z,14.79
2018-06-14T07:05:40.753Z,14.74
2018-06-14T07:08:11.653Z,14.81
2018-06-14T07:10:42.758Z,15.05
2018-06-14T07:13:13.954Z,15.12
2018-06-14T07:15:45.010Z,15.09
2018-06-14T07:18:15.954Z,15.18
2018-06-14T07:20:46.923Z,15.22
2018-06-14T07:23:18.056Z,15.31
2018-06-14T07:25:51.940Z,15.14
2018-06-14T07:28:23.379Z,15.22
2018-06-14T07:30:54.393Z,15.19
2018-06-14T07:33:25.872Z,15.13
2018-06-14T07:35:56.818Z,15.20
2018-06-14T07:38:27.954Z,15.35
2018-06-14T07:40:58.996Z,15.62
2018-06-14T07:43:30.053Z,15.70
2018-06-14T07:46:01.188Z,15.83
2018-06-14T07:48:32.197Z,15.74
2018-06-14T07:51:03.283Z,15.90
2018-06-14T07:53:34.317Z,15.90
2018-06-14T07:56:05.662Z,16.04
2018-06-14T07:58:37.245Z,15.83
2018-06-14T08:01:12.524Z,15.69
2018-06-14T08:03:48.582Z,15.63
2018-06-14T08:06:22.359Z,15.57
2018-06-14T08:08:54.259Z,15.55
2018-06-14T08:11:25.382Z,15.81
2018-06-14T08:13:56.406Z,15.58
2018-06-14T08:16:27.393Z,15.28
2018-06-14T08:18:58.658Z,15.48
2018-06-14T08:21:29.700Z,15.50
2018-06-14T08:24:00.972Z,15.64
2018-06-14T08:26:32.020Z,15.57
2018-06-14T08:29:03.073Z,15.71
2018-06-14T08:31:34.219Z,15.50
2018-06-14T08:34:05.673Z,15.59
2018-06-14T08:36:36.813Z,15.81
2018-06-14T08:39:09.419Z,15.74
2018-06-14T08:41:40.785Z,15.55
2018-06-14T08:44:11.893Z,15.48
2018-06-14T08:46:42.929Z,15.73
2018-06-14T08:49:14.383Z,15.86
2018-06-14T08:51:45.405Z,15.89
2018-06-14T08:54:16.455Z,15.79
2018-06-14T08:56:47.525Z,15.98
2018-06-14T08:59:19.073Z,16.09
2018-06-14T09:01:50.113Z,16.00
2018-06-14T09:04:21.406Z,15.82
2018-06-14T09:06:52.293Z,16.03
2018-06-14T09:09:23.361Z,15.94
2018-06-14T09:11:54.436Z,15.90
2018-06-14T09:14:26.004Z,15.84
2018-06-14T09:16:57.133Z,15.71
2018-06-14T09:19:28.196Z,15.81
2018-06-14T09:21:59.416Z,15.78
2018-06-14T09:24:30.443Z,15.95
2018-06-14T09:27:01.489Z,16.06
2018-06-14T09:29:32.725Z,15.57
2018-06-14T09:32:03.903Z,16.04
2018-06-14T09:34:35.061Z,15.95
2018-06-14T09:37:06.058Z,16.16
2018-06-14T09:39:37.023Z,16.27
2018-06-14T09:42:08.947Z,16.06
2018-06-14T09:44:40.123Z,16.31
2018-06-14T09:47:11.085Z,16.43
2018-06-14T09:49:42.264Z,16.09
2018-06-14T09:52:13.256Z,16.22
2018-06-14T09:54:44.224Z,16.15
2018-06-14T09:57:15.102Z,16.11
2018-06-14T09:59:46.216Z,16.17
2018-06-14T10:02:17.003Z,16.06
2018-06-14T10:04:48.166Z,16.16
2018-06-14T10:07:19.121Z,16.63
2018-06-14T10:09:50.109Z,16.54
2018-06-14T10:12:21.080Z,16.45
2018-06-14T10:14:52.833Z,16.27
2018-06-14T10:17:23.830Z,16.05
2018-06-14T10:19:55.245Z,15.96
2018-06-14T10:22:26.323Z,16.22
2018-06-14T10:24:57.476Z,15.89
2018-06-14T10:27:29.463Z,16.16
2018-06-14T10:30:00.776Z,16.20
2018-06-14T10:32:32.204Z,16.28
2018-06-14T10:35:03.368Z,16.11
2018-06-14T10:37:34.369Z,16.37
2018-06-14T10:40:05.820Z,16.08
2018-06-14T10:42:37.341Z,16.09
2018-06-14T10:45:09.314Z,16.33
2018-06-14T10:47:40.821Z,16.67
2018-06-14T10:50:11.677Z,16.64
2018-06-14T10:52:43.073Z,16.82
2018-06-14T10:55:14.062Z,16.95
2018-06-14T10:57:45.452Z,16.84
2018-06-14T11:00:24.732Z,16.82
2018-06-14T11:03:28.094Z,17.06
2018-06-14T11:06:07.893Z,17.44
2018-06-14T11:08:39.111Z,17.10
2018-06-14T11:11:09.911Z,17.19
2018-06-14T11:13:40.890Z,17.44
2018-06-14T11:16:11.829Z,17.57
2018-06-14T11:18:42.929Z,17.76
2018-06-14T11:21:13.862Z,17.62
2018-06-14T11:23:45.577Z,17.42
2018-06-14T11:26:17.603Z,17.08
2018-06-14T11:28:51.252Z,17.05
2018-06-14T11:31:24.105Z,16.69
2018-06-14T11:33:55.225Z,17.16
2018-06-14T11:36:26.105Z,17.65
2018-06-14T11:38:57.178Z,17.77
2018-06-14T11:41:28.486Z,18.07
2018-06-14T11:43:59.834Z,18.16
2018-06-14T11:46:30.841Z,17.89
2018-06-14T11:49:02.545Z,17.84
2018-06-14T11:51:34.128Z,18.32
2018-06-14T11:54:05.336Z,18.21
2018-06-14T11:56:36.192Z,18.50
2018-06-14T11:59:07.244Z,18.46
2018-06-14T12:01:38.248Z,18.77
2018-06-14T12:04:09.249Z,18.84
2018-06-14T12:06:40.289Z,19.03
2018-06-14T12:09:11.309Z,19.23
2018-06-14T12:11:42.312Z,19.19
2018-06-14T12:14:13.507Z,19.54
2018-06-14T12:16:44.939Z,19.56
2018-06-14T12:19:16.917Z,19.39
2018-06-14T12:21:47.940Z,19.11
2018-06-14T12:24:20.070Z,18.73
2018-06-14T12:26:51.342Z,18.36
2018-06-14T12:29:23.425Z,18.79
2018-06-14T12:31:54.718Z,19.20
2018-06-14T12:34:25.920Z,19.13
2018-06-14T12:36:57.084Z,18.71
2018-06-14T12:39:28.205Z,18.82
2018-06-14T12:41:59.513Z,19.22
2018-06-14T12:44:30.643Z,19.12
2018-06-14T12:47:02.038Z,18.86
2018-06-14T12:49:33.411Z,19.14
2018-06-14T12:52:04.439Z,19.21
2018-06-14T12:54:35.724Z,19.49
2018-06-14T12:57:06.956Z,19.07
2018-06-14T12:59:38.481Z,19.05
2018-06-14T13:02:09.599Z,19.52
2018-06-14T13:04:40.914Z,19.91
2018-06-14T13:07:11.811Z,19.78
2018-06-14T13:09:45.498Z,20.12
2018-06-14T13:12:17.645Z,20.06
2018-06-14T13:14:49.334Z,19.89
2018-06-14T13:17:20.487Z,19.68
2018-06-14T13:19:51.497Z,19.39
2018-06-14T13:22:22.689Z,19.52
2018-06-14T13:24:53.899Z,19.88
2018-06-14T13:27:25.049Z,20.19
2018-06-14T13:29:56.113Z,19.98
2018-06-14T13:32:27.273Z,19.18
2018-06-14T13:34:58.640Z,19.93
2018-06-14T13:37:29.718Z,20.30
2018-06-14T13:40:01.241Z,19.80
2018-06-14T13:42:37.623Z,19.23
2018-06-14T13:45:09.951Z,19.33
2018-06-14T13:47:55.010Z,19.76
2018-06-14T13:50:32.738Z,19.82
2018-06-14T13:53:05.148Z,19.80
2018-06-14T13:55:36.659Z,20.28
2018-06-14T13:58:10.327Z,19.52
2018-06-14T14:00:41.549Z,19.37
2018-06-14T14:03:13.126Z,19.45
2018-06-14T14:05:44.516Z,19.56
2018-06-14T14:08:15.866Z,19.81
2018-06-14T14:10:47.029Z,19.78
2018-06-14T14:13:18.088Z,19.86
2018-06-14T14:15:50.378Z,19.75
2018-06-14T14:18:21.561Z,20.06
2018-06-14T14:20:53.220Z,19.82
2018-06-14T14:23:24.825Z,19.63
2018-06-14T14:25:55.940Z,19.71
2018-06-14T14:28:27.053Z,20.18
2018-06-14T14:30:58.389Z,20.39
2018-06-14T14:33:29.705Z,19.73
2018-06-14T14:36:01.214Z,19.63
2018-06-14T14:38:32.294Z,19.72
2018-06-14T14:41:03.512Z,19.91
2018-06-14T14:43:35.722Z,20.38
2018-06-14T14:46:06.919Z,20.03
2018-06-14T14:48:39.126Z,20.17
2018-06-14T14:51:10.234Z,20.08
2018-06-14T14:53:42.157Z,20.13
2018-06-14T14:56:13.480Z,20.13
2018-06-14T14:58:44.562Z,19.95
2018-06-14T15:01:15.798Z,20.20
2018-06-14T15:03:47.494Z,19.71
2018-06-14T15:06:18.774Z,19.76
2018-06-14T15:08:50.127Z,20.24
2018-06-14T15:11:21.282Z,19.96
2018-06-14T15:13:52.983Z,20.15
2018-06-14T15:16:25.320Z,19.93
2018-06-14T15:18:56.952Z,20.00
2018-06-14T15:21:28.307Z,19.76
2018-06-14T15:23:59.628Z,19.36
2018-06-14T15:26:31.437Z,19.51
2018-06-14T15:29:02.793Z,19.57
2018-06-14T15:31:34.003Z,19.94
2018-06-14T15:34:05.525Z,19.62
2018-06-14T15:36:36.670Z,19.96
2018-06-14T15:39:09.534Z,20.14
2018-06-14T15:41:40.842Z,19.80
2018-06-14T15:44:13.499Z,19.88
2018-06-14T15:46:44.905Z,19.80
2018-06-14T15:49:16.724Z,20.10
2018-06-14T15:51:47.934Z,20.16
2018-06-14T15:54:19.458Z,20.18
2018-06-14T15:56:51.048Z,19.99
2018-06-14T15:59:24.052Z,20.10
2018-06-14T16:01:55.797Z,19.97
2018-06-14T16:04:26.948Z,20.11
2018-06-14T16:06:58.955Z,20.13
2018-06-14T16:09:30.162Z,19.89
2018-06-14T16:12:01.229Z,20.06
2018-06-14T16:14:35.068Z,20.21
2018-06-14T16:17:06.925Z,20.32
2018-06-14T16:19:38.483Z,20.38
2018-06-14T16:22:11.207Z,20.11
2018-06-14T16:24:45.470Z,19.83
2018-06-14T16:27:16.724Z,19.71
2018-06-14T16:29:48.631Z,20.00
2018-06-14T16:32:20.466Z,20.39
2018-06-14T16:34:52.112Z,20.33
2018-06-14T16:37:23.203Z,20.26
2018-06-14T16:39:55.434Z,20.06
2018-06-14T16:42:26.481Z,20.01
2018-06-14T16:44:57.965Z,19.90
2018-06-14T16:47:29.189Z,19.62
2018-06-14T16:50:00.345Z,19.54
2018-06-14T16:52:31.727Z,19.68
2018-06-14T16:55:03.636Z,19.65
2018-06-14T16:57:34.685Z,19.50
2018-06-14T17:00:06.260Z,19.18
2018-06-14T17:02:37.454Z,19.05
2018-06-14T17:05:09.684Z,19.33
2018-06-14T17:07:40.781Z,18.97
2018-06-14T17:10:12.021Z,19.50
2018-06-14T17:12:44.744Z,19.55
2018-06-14T17:15:15.778Z,19.37
2018-06-14T17:17:47.461Z,19.20
2018-06-14T17:20:18.625Z,19.16
2018-06-14T17:22:49.822Z,19.33
2018-06-14T17:25:20.910Z,19.21
2018-06-14T17:27:52.285Z,19.19
2018-06-14T17:30:23.361Z,19.12
2018-06-14T17:32:54.617Z,19.11
2018-06-14T17:35:25.773Z,18.91
2018-06-14T17:37:57.114Z,18.94
2018-06-14T17:40:28.437Z,18.82
2018-06-14T17:43:01.337Z,18.43
2018-06-14T17:45:39.928Z,18.36
2018-06-14T17:48:12.505Z,18.71
2018-06-14T17:50:43.587Z,19.04
2018-06-14T17:53:14.876Z,18.85
2018-06-14T17:55:51.155Z,18.68
2018-06-14T17:58:26.246Z,18.63
2018-06-14T18:00:57.559Z,18.79
2018-06-14T18:03:28.998Z,18.58
2018-06-14T18:06:00.643Z,18.69
2018-06-14T18:08:31.874Z,18.73
2018-06-14T18:11:03.388Z,18.58
2018-06-14T18:13:34.895Z,18.57
2018-06-14T18:16:06.178Z,18.56
2018-06-14T18:18:37.287Z,18.62
2018-06-14T18:21:08.885Z,18.47
2018-06-14T18:23:40.319Z,18.43
2018-06-14T18:26:11.988Z,18.23
2018-06-14T18:28:43.064Z,18.32
2018-06-14T18:31:14.628Z,18.33
2018-06-14T18:33:45.836Z,18.30
2018-06-14T18:36:17.333Z,18.16
2018-06-14T18:38:48.425Z,18.08
2018-06-14T18:41:19.697Z,18.01
2018-06-14T18:43:54.469Z,17.97
2018-06-14T18:46:26.095Z,18.07
2018-06-14T18:48:58.308Z,17.89
2018-06-14T18:51:30.145Z,17.93
2018-06-14T18:54:01.903Z,17.65
2018-06-14T18:56:33.713Z,17.65
2018-06-14T18:59:05.308Z,17.78
2018-06-14T19:01:37.669Z,17.64
2018-06-14T19:04:10.349Z,17.66
2018-06-14T19:06:43.606Z,17.47
2018-06-14T19:09:15.831Z,17.40
2018-06-14T19:11:48.523Z,17.35
2018-06-14T19:14:19.782Z,17.29
2018-06-14T19:16:51.389Z,17.41
2018-06-14T19:19:22.584Z,17.30
2018-06-14T19:21:53.789Z,17.27
2018-06-14T19:24:24.950Z,17.26
2018-06-14T19:26:56.440Z,17.29
2018-06-14T19:29:29.200Z,17.20
2018-06-14T19:32:00.661Z,16.88
2018-06-14T19:34:32.331Z,16.56
2018-06-14T19:37:03.638Z,16.63
2018-06-14T19:39:35.366Z,16.58
2018-06-14T19:42:06.844Z,16.51
2018-06-14T19:44:37.815Z,16.41
2018-06-14T19:47:11.639Z,16.36
2018-06-14T19:49:43.028Z,16.03
2018-06-14T19:52:14.279Z,16.15
2018-06-14T19:54:45.525Z,16.25
2018-06-14T19:57:16.645Z,16.10
2018-06-14T19:59:47.728Z,16.11
2018-06-14T20:02:18.967Z,16.12
2018-06-14T20:04:50.622Z,16.01
2018-06-14T20:07:21.746Z,15.99
2018-06-14T20:09:53.786Z,16.01
2018-06-14T20:12:25.274Z,15.87
2018-06-14T20:14:56.313Z,15.83
2018-06-14T20:17:27.711Z,15.93
2018-06-14T20:19:58.905Z,15.64
2018-06-14T20:22:29.906Z,15.35
2018-06-14T20:25:01.170Z,15.64
2018-06-14T20:27:32.299Z,15.59
2018-06-14T20:30:03.664Z,15.58
2018-06-14T20:32:34.915Z,15.62
2018-06-14T20:35:06.293Z,15.57
2018-06-14T20:37:39.184Z,15.43
2018-06-14T20:40:13.004Z,15.46
2018-06-14T20:42:44.644Z,15.40
2018-06-14T20:45:18.722Z,15.32
2018-06-14T20:47:49.813Z,15.24
2018-06-14T20:50:22.939Z,15.20
2018-06-14T20:52:54.380Z,15.17
2018-06-14T20:55:25.476Z,14.92
2018-06-14T20:57:56.849Z,15.13
2018-06-14T21:00:29.185Z,15.07
2018-06-14T21:03:00.128Z,14.99
2018-06-14T21:05:31.349Z,14.57
2018-06-14T21:08:02.768Z,14.79
2018-06-14T21:10:33.986Z,14.85
2018-06-14T21:13:05.000Z,14.50
2018-06-14T21:15:36.196Z,14.55
2018-06-14T21:18:13.954Z,14.71
2018-06-14T21:20:44.818Z,14.76
2018-06-14T21:23:16.300Z,14.65
2018-06-14T21:25:47.302Z,14.73
2018-06-14T21:28:18.241Z,14.72
2018-06-14T21:30:49.300Z,14.64
2018-06-14T21:33:20.406Z,14.69
2018-06-14T21:35:51.809Z,14.53
2018-06-14T21:38:22.765Z,14.64
2018-06-14T21:40:54.095Z,14.65
2018-06-14T21:43:25.197Z,14.54
2018-06-14T21:45:56.405Z,14.45
2018-06-14T21:48:27.381Z,14.13
2018-06-14T21:50:58.424Z,14.27
2018-06-14T21:53:29.467Z,14.30
2018-06-14T21:56:00.508Z,14.32
2018-06-14T21:58:32.125Z,14.39
2018-06-14T22:01:03.279Z,14.33
2018-06-14T22:03:39.623Z,14.07
2018-06-14T22:06:10.652Z,14.05
2018-06-14T22:08:41.582Z,13.99
2018-06-14T22:11:13.013Z,14.14
2018-06-14T22:13:44.163Z,13.75
2018-06-14T22:16:15.177Z,13.93
2018-06-14T22:18:46.321Z,13.92
2018-06-14T22:21:17.344Z,13.85
2018-06-14T22:23:50.347Z,14.08
2018-06-14T22:26:22.885Z,13.85
2018-06-14T22:28:56.182Z,13.89
2018-06-14T22:31:27.529Z,13.79
2018-06-14T22:34:09.623Z,13.34
2018-06-14T22:36:40.577Z,13.69
2018-06-14T22:39:11.623Z,13.74
2018-06-14T22:41:42.620Z,13.76
2018-06-14T22:44:13.674Z,13.59
2018-06-14T22:46:44.806Z,13.68
2018-06-14T22:49:15.880Z,13.82
2018-06-14T22:52:54.500Z,13.49
2018-06-14T22:55:26.259Z,13.53
2018-06-14T22:57:57.211Z,13.45
2018-06-14T23:00:39.718Z,13.48
2018-06-14T23:03:10.391Z,13.56
2018-06-14T23:05:41.323Z,13.48
2018-06-14T23:08:12.213Z,13.49
2018-06-14T23:10:54.147Z,13.32
2018-06-14T23:13:25.207Z,13.41
2018-06-14T23:15:56.318Z,13.29
2018-06-14T23:18:27.261Z,13.23
2018-06-14T23:20:58.276Z,13.30
2018-06-14T23:23:29.274Z,13.33
2018-06-14T23:26:00.311Z,13.23
2018-06-14T23:28:33.256Z,13.13
2018-06-14T23:31:04.567Z,13.10
2018-06-14T23:33:35.489Z,13.22
2018-06-14T23:36:06.553Z,13.08
2018-06-14T23:38:37.537Z,13.12
2018-06-14T23:41:08.618Z,13.21
2018-06-14T23:43:39.660Z,13.11
2018-06-14T23:46:10.732Z,13.18
2018-06-14T23:48:41.641Z,13.05
2018-06-14T23:51:12.621Z,13.04
2018-06-14T23:53:43.841Z,13.08
2018-06-14T23:56:14.770Z,13.09
2018-06-14T23:58:45.836Z,12.77
